sensor_id;sensor_type;location;lat;lon;timestamp;pressure;altitude;pressure_sealevel;temperature;humidity
64933;BME280;51446;53.850;10.662;2023-07-08T00:01:56;102128.22;;;17.69;100.00
64933;BME280;51446;53.850;10.662;2023-07-08T00:04:21;102133.38;;;17.52;100.00
64933;BME280;51446;53.850;10.662;2023-07-08T00:06:47;102127.72;;;17.14;100.00
64933;BME280;51446;53.850;10.662;2023-07-08T00:09:12;102132.13;;;17.10;100.00
64933;BME280;51446;53.850;10.662;2023-07-08T00:11:38;102128.63;;;17.13;100.00
64933;BME280;51446;53.850;10.662;2023-07-08T00:14:03;102129.34;;;17.01;100.00
64933;BME280;51446;53.850;10.662;2023-07-08T00:16:29;102126.88;;;17.20;100.00
64933;BME280;51446;53.850;10.662;2023-07-08T00:18:54;102134.22;;;16.65;100.00
64933;BME280;51446;53.850;10.662;2023-07-08T00:21:19;102135.94;;;16.63;100.00
64933;BME280;51446;53.850;10.662;2023-07-08T00:23:49;102110.38;;;16.64;100.00
64933;BME280;51446;53.850;10.662;2023-07-08T00:26:23;102123.16;;;17.01;100.00
64933;BME280;51446;53.850;10.662;2023-07-08T00:28:50;102121.22;;;16.86;100.00
64933;BME280;51446;53.850;10.662;2023-07-08T00:31:15;102125.19;;;16.50;100.00
64933;BME280;51446;53.850;10.662;2023-07-08T00:33:40;102121.09;;;16.09;100.00
64933;BME280;51446;53.850;10.662;2023-07-08T00:36:11;102126.84;;;16.43;100.00
64933;BME280;51446;53.850;10.662;2023-07-08T00:38:38;102110.13;;;16.45;100.00
64933;BME280;51446;53.850;10.662;2023-07-08T00:41:12;102117.84;;;16.28;100.00
64933;BME280;51446;53.850;10.662;2023-07-08T00:43:41;102114.34;;;15.74;100.00
64933;BME280;51446;53.850;10.662;2023-07-08T00:49:00;102115.25;;;16.33;100.00
64933;BME280;51446;53.850;10.662;2023-07-08T00:51:28;102115.81;;;16.78;100.00
64933;BME280;51446;53.850;10.662;2023-07-08T00:53:53;102116.56;;;16.66;100.00
64933;BME280;51446;53.850;10.662;2023-07-08T00:58:51;102110.09;;;16.41;100.00
64933;BME280;51446;53.850;10.662;2023-07-08T01:01:18;102110.56;;;16.10;100.00
64933;BME280;51446;53.850;10.662;2023-07-08T01:03:48;102116.97;;;16.29;100.00
64933;BME280;51446;53.850;10.662;2023-07-08T01:06:17;102119.75;;;16.39;100.00
64933;BME280;51446;53.850;10.662;2023-07-08T01:08:43;102106.63;;;16.46;100.00
64933;BME280;51446;53.850;10.662;2023-07-08T01:11:08;102105.28;;;16.82;100.00
64933;BME280;51446;53.850;10.662;2023-07-08T01:13:41;102100.19;;;16.99;100.00
64933;BME280;51446;53.850;10.662;2023-07-08T01:16:07;102111.44;;;16.81;100.00
64933;BME280;51446;53.850;10.662;2023-07-08T01:18:33;102106.72;;;16.56;100.00
64933;BME280;51446;53.850;10.662;2023-07-08T01:21:03;102105.63;;;16.38;100.00
64933;BME280;51446;53.850;10.662;2023-07-08T01:23:32;102104.75;;;16.39;100.00
64933;BME280;51446;53.850;10.662;2023-07-08T01:25:59;102099.59;;;15.87;100.00
64933;BME280;51446;53.850;10.662;2023-07-08T01:28:27;102116.31;;;15.83;100.00
64933;BME280;51446;53.850;10.662;2023-07-08T01:30:53;102119.47;;;16.19;100.00
64933;BME280;51446;53.850;10.662;2023-07-08T01:33:20;102112.66;;;16.38;100.00
64933;BME280;51446;53.850;10.662;2023-07-08T01:35:47;102108.31;;;16.43;100.00
64933;BME280;51446;53.850;10.662;2023-07-08T01:38:16;102100.63;;;16.63;100.00
64933;BME280;51446;53.850;10.662;2023-07-08T01:40:52;102102.91;;;16.32;100.00
64933;BME280;51446;53.850;10.662;2023-07-08T01:43:17;102097.41;;;16.17;100.00
64933;BME280;51446;53.850;10.662;2023-07-08T01:45:43;102107.66;;;15.95;100.00
64933;BME280;51446;53.850;10.662;2023-07-08T01:48:11;102101.09;;;15.71;100.00
64933;BME280;51446;53.850;10.662;2023-07-08T01:50:49;102102.81;;;15.69;100.00
64933;BME280;51446;53.850;10.662;2023-07-08T01:53:21;102099.78;;;15.98;100.00
64933;BME280;51446;53.850;10.662;2023-07-08T01:55:47;102101.19;;;16.37;100.00
64933;BME280;51446;53.850;10.662;2023-07-08T01:58:12;102094.88;;;16.27;100.00
64933;BME280;51446;53.850;10.662;2023-07-08T02:00:37;102090.88;;;15.94;100.00
64933;BME280;51446;53.850;10.662;2023-07-08T02:03:02;102097.09;;;15.97;100.00
64933;BME280;51446;53.850;10.662;2023-07-08T02:05:28;102090.66;;;16.42;100.00
64933;BME280;51446;53.850;10.662;2023-07-08T02:07:53;102084.94;;;16.08;100.00
64933;BME280;51446;53.850;10.662;2023-07-08T02:10:19;102096.13;;;16.56;100.00
64933;BME280;51446;53.850;10.662;2023-07-08T02:12:44;102081.94;;;16.52;100.00
64933;BME280;51446;53.850;10.662;2023-07-08T02:15:10;102094.41;;;16.59;100.00
64933;BME280;51446;53.850;10.662;2023-07-08T02:17:35;102095.13;;;16.47;100.00
64933;BME280;51446;53.850;10.662;2023-07-08T02:20:00;102098.22;;;16.12;100.00
64933;BME280;51446;53.850;10.662;2023-07-08T02:22:26;102097.22;;;16.04;100.00
64933;BME280;51446;53.850;10.662;2023-07-08T02:24:52;102100.91;;;16.17;100.00
64933;BME280;51446;53.850;10.662;2023-07-08T02:27:17;102096.06;;;15.85;100.00
64933;BME280;51446;53.850;10.662;2023-07-08T02:29:43;102079.94;;;15.71;100.00
64933;BME280;51446;53.850;10.662;2023-07-08T02:32:09;102086.53;;;15.98;100.00
64933;BME280;51446;53.850;10.662;2023-07-08T02:34:35;102096.19;;;15.94;100.00
64933;BME280;51446;53.850;10.662;2023-07-08T02:37:01;102100.38;;;15.80;100.00
64933;BME280;51446;53.850;10.662;2023-07-08T02:39:26;102103.38;;;16.03;100.00
64933;BME280;51446;53.850;10.662;2023-07-08T02:41:51;102098.91;;;15.98;100.00
64933;BME280;51446;53.850;10.662;2023-07-08T02:44:17;102100.50;;;15.86;100.00
64933;BME280;51446;53.850;10.662;2023-07-08T02:46:42;102107.75;;;15.48;100.00
64933;BME280;51446;53.850;10.662;2023-07-08T02:49:07;102111.03;;;15.33;100.00
64933;BME280;51446;53.850;10.662;2023-07-08T02:51:33;102107.66;;;15.41;100.00
64933;BME280;51446;53.850;10.662;2023-07-08T02:53:58;102105.06;;;15.44;100.00
64933;BME280;51446;53.850;10.662;2023-07-08T02:56:24;102098.84;;;15.42;100.00
64933;BME280;51446;53.850;10.662;2023-07-08T02:58:51;102104.63;;;15.18;100.00
64933;BME280;51446;53.850;10.662;2023-07-08T03:01:16;102102.81;;;15.16;100.00
64933;BME280;51446;53.850;10.662;2023-07-08T03:03:43;102097.34;;;15.08;100.00
64933;BME280;51446;53.850;10.662;2023-07-08T03:06:09;102105.38;;;15.11;100.00
64933;BME280;51446;53.850;10.662;2023-07-08T03:08:34;102107.16;;;15.14;100.00
64933;BME280;51446;53.850;10.662;2023-07-08T03:11:02;102107.13;;;15.12;100.00
64933;BME280;51446;53.850;10.662;2023-07-08T03:13:28;102100.84;;;15.54;100.00
64933;BME280;51446;53.850;10.662;2023-07-08T03:15:54;102105.56;;;15.75;100.00
64933;BME280;51446;53.850;10.662;2023-07-08T03:18:22;102102.84;;;15.71;100.00
64933;BME280;51446;53.850;10.662;2023-07-08T03:20:52;102092.63;;;15.39;100.00
64933;BME280;51446;53.850;10.662;2023-07-08T03:23:17;102102.66;;;15.09;100.00
64933;BME280;51446;53.850;10.662;2023-07-08T03:25:43;102107.34;;;14.77;100.00
64933;BME280;51446;53.850;10.662;2023-07-08T03:28:08;102111.94;;;14.87;100.00
64933;BME280;51446;53.850;10.662;2023-07-08T03:30:42;102103.00;;;14.81;100.00
64933;BME280;51446;53.850;10.662;2023-07-08T03:33:09;102110.19;;;14.88;100.00
64933;BME280;51446;53.850;10.662;2023-07-08T03:35:34;102113.59;;;15.30;100.00
64933;BME280;51446;53.850;10.662;2023-07-08T03:38:00;102116.84;;;15.13;100.00
64933;BME280;51446;53.850;10.662;2023-07-08T03:40:26;102111.50;;;15.10;100.00
64933;BME280;51446;53.850;10.662;2023-07-08T03:42:51;102113.09;;;15.51;100.00
64933;BME280;51446;53.850;10.662;2023-07-08T03:45:16;102110.94;;;15.80;100.00
64933;BME280;51446;53.850;10.662;2023-07-08T03:47:42;102120.56;;;15.76;100.00
64933;BME280;51446;53.850;10.662;2023-07-08T03:50:17;102120.66;;;15.80;100.00
64933;BME280;51446;53.850;10.662;2023-07-08T03:52:44;102116.63;;;16.03;100.00
64933;BME280;51446;53.850;10.662;2023-07-08T03:55:11;102112.16;;;16.01;100.00
64933;BME280;51446;53.850;10.662;2023-07-08T03:57:36;102107.72;;;15.98;100.00
64933;BME280;51446;53.850;10.662;2023-07-08T04:00:02;102113.75;;;15.88;100.00
64933;BME280;51446;53.850;10.662;2023-07-08T04:02:28;102120.19;;;16.07;100.00
64933;BME280;51446;53.850;10.662;2023-07-08T04:04:53;102112.81;;;15.86;100.00
64933;BME280;51446;53.850;10.662;2023-07-08T04:07:18;102107.00;;;15.55;100.00
64933;BME280;51446;53.850;10.662;2023-07-08T04:09:44;102114.09;;;15.57;100.00
64933;BME280;51446;53.850;10.662;2023-07-08T04:12:14;102110.94;;;15.78;100.00
64933;BME280;51446;53.850;10.662;2023-07-08T04:14:40;102117.59;;;15.56;100.00
64933;BME280;51446;53.850;10.662;2023-07-08T04:17:08;102112.97;;;15.43;100.00
64933;BME280;51446;53.850;10.662;2023-07-08T04:19:33;102114.94;;;15.55;100.00
64933;BME280;51446;53.850;10.662;2023-07-08T04:22:00;102114.31;;;15.73;100.00
64933;BME280;51446;53.850;10.662;2023-07-08T04:24:26;102111.88;;;15.82;100.00
64933;BME280;51446;53.850;10.662;2023-07-08T04:26:51;102102.34;;;15.92;100.00
64933;BME280;51446;53.850;10.662;2023-07-08T04:29:19;102103.31;;;16.00;100.00
64933;BME280;51446;53.850;10.662;2023-07-08T04:31:44;102114.69;;;15.93;100.00
64933;BME280;51446;53.850;10.662;2023-07-08T04:34:10;102109.81;;;16.21;100.00
64933;BME280;51446;53.850;10.662;2023-07-08T04:36:36;102104.56;;;16.25;100.00
64933;BME280;51446;53.850;10.662;2023-07-08T04:39:03;102109.22;;;16.45;100.00
64933;BME280;51446;53.850;10.662;2023-07-08T04:41:28;102103.88;;;16.42;100.00
64933;BME280;51446;53.850;10.662;2023-07-08T04:43:54;102107.53;;;16.48;100.00
64933;BME280;51446;53.850;10.662;2023-07-08T04:46:31;102096.22;;;16.65;100.00
64933;BME280;51446;53.850;10.662;2023-07-08T04:49:00;102098.75;;;16.53;100.00
64933;BME280;51446;53.850;10.662;2023-07-08T04:51:26;102097.16;;;16.69;100.00
64933;BME280;51446;53.850;10.662;2023-07-08T04:53:51;102092.66;;;16.60;100.00
64933;BME280;51446;53.850;10.662;2023-07-08T04:56:16;102086.84;;;16.92;100.00
64933;BME280;51446;53.850;10.662;2023-07-08T04:58:42;102084.22;;;16.93;100.00
64933;BME280;51446;53.850;10.662;2023-07-08T05:01:07;102086.91;;;16.98;100.00
64933;BME280;51446;53.850;10.662;2023-07-08T05:03:32;102086.13;;;17.08;100.00
64933;BME280;51446;53.850;10.662;2023-07-08T05:05:57;102074.94;;;17.39;100.00
64933;BME280;51446;53.850;10.662;2023-07-08T05:08:23;102081.09;;;17.33;100.00
64933;BME280;51446;53.850;10.662;2023-07-08T05:10:48;102081.06;;;17.31;100.00
64933;BME280;51446;53.850;10.662;2023-07-08T05:13:13;102073.28;;;17.53;100.00
64933;BME280;51446;53.850;10.662;2023-07-08T05:15:38;102074.50;;;17.94;100.00
64933;BME280;51446;53.850;10.662;2023-07-08T05:18:04;102078.81;;;17.89;100.00
64933;BME280;51446;53.850;10.662;2023-07-08T05:20:29;102078.13;;;18.14;100.00
64933;BME280;51446;53.850;10.662;2023-07-08T05:22:56;102085.97;;;17.93;100.00
64933;BME280;51446;53.850;10.662;2023-07-08T05:25:21;102085.28;;;18.29;100.00
64933;BME280;51446;53.850;10.662;2023-07-08T05:27:47;102080.88;;;18.28;100.00
64933;BME280;51446;53.850;10.662;2023-07-08T05:30:17;102084.41;;;18.33;100.00
64933;BME280;51446;53.850;10.662;2023-07-08T05:32:44;102075.59;;;18.42;100.00
64933;BME280;51446;53.850;10.662;2023-07-08T05:35:09;102078.22;;;18.30;100.00
64933;BME280;51446;53.850;10.662;2023-07-08T05:37:34;102077.38;;;18.43;100.00
64933;BME280;51446;53.850;10.662;2023-07-08T05:40:00;102071.25;;;18.60;100.00
64933;BME280;51446;53.850;10.662;2023-07-08T05:42:29;102057.06;;;18.51;100.00
64933;BME280;51446;53.850;10.662;2023-07-08T05:44:54;102064.19;;;18.65;100.00
64933;BME280;51446;53.850;10.662;2023-07-08T05:47:20;102070.44;;;18.87;100.00
64933;BME280;51446;53.850;10.662;2023-07-08T05:49:45;102070.50;;;19.12;100.00
64933;BME280;51446;53.850;10.662;2023-07-08T05:52:10;102066.97;;;19.17;100.00
64933;BME280;51446;53.850;10.662;2023-07-08T05:54:40;102072.28;;;19.30;100.00
64933;BME280;51446;53.850;10.662;2023-07-08T05:57:07;102074.06;;;19.43;100.00
64933;BME280;51446;53.850;10.662;2023-07-08T05:59:34;102075.81;;;19.49;100.00
64933;BME280;51446;53.850;10.662;2023-07-08T06:02:00;102074.91;;;19.74;100.00
64933;BME280;51446;53.850;10.662;2023-07-08T06:04:25;102067.81;;;20.01;98.72
64933;BME280;51446;53.850;10.662;2023-07-08T06:06:51;102071.38;;;19.97;100.00
64933;BME280;51446;53.850;10.662;2023-07-08T06:09:16;102068.53;;;20.45;97.13
64933;BME280;51446;53.850;10.662;2023-07-08T06:11:41;102079.94;;;20.76;99.64
64933;BME280;51446;53.850;10.662;2023-07-08T06:14:08;102074.53;;;20.92;95.25
64933;BME280;51446;53.850;10.662;2023-07-08T06:16:33;102070.69;;;21.30;94.68
64933;BME280;51446;53.850;10.662;2023-07-08T06:19:00;102069.84;;;21.26;87.07
64933;BME280;51446;53.850;10.662;2023-07-08T06:21:25;102081.19;;;21.50;89.14
64933;BME280;51446;53.850;10.662;2023-07-08T06:23:51;102079.00;;;21.94;87.09
64933;BME280;51446;53.850;10.662;2023-07-08T06:26:16;102081.00;;;22.52;83.62
64933;BME280;51446;53.850;10.662;2023-07-08T06:28:41;102079.25;;;22.53;81.53
64933;BME280;51446;53.850;10.662;2023-07-08T06:31:06;102084.00;;;22.93;79.42
64933;BME280;51446;53.850;10.662;2023-07-08T06:33:32;102088.66;;;23.41;79.26
64933;BME280;51446;53.850;10.662;2023-07-08T06:35:57;102084.59;;;23.70;76.10
64933;BME280;51446;53.850;10.662;2023-07-08T06:38:22;102082.03;;;24.12;76.20
64933;BME280;51446;53.850;10.662;2023-07-08T06:40:48;102089.81;;;24.24;70.36
64933;BME280;51446;53.850;10.662;2023-07-08T06:43:13;102089.00;;;24.21;70.04
64933;BME280;51446;53.850;10.662;2023-07-08T06:45:40;102087.69;;;24.83;68.39
64933;BME280;51446;53.850;10.662;2023-07-08T06:48:06;102081.19;;;24.93;65.70
64933;BME280;51446;53.850;10.662;2023-07-08T06:50:31;102081.59;;;25.51;63.52
64933;BME280;51446;53.850;10.662;2023-07-08T06:52:56;102080.31;;;25.30;67.03
64933;BME280;51446;53.850;10.662;2023-07-08T06:55:22;102075.81;;;26.00;63.61
64933;BME280;51446;53.850;10.662;2023-07-08T06:57:47;102075.94;;;26.58;58.52
64933;BME280;51446;53.850;10.662;2023-07-08T07:00:13;102084.00;;;27.16;58.07
64933;BME280;51446;53.850;10.662;2023-07-08T07:02:40;102075.88;;;26.89;55.78
64933;BME280;51446;53.850;10.662;2023-07-08T07:05:06;102082.44;;;27.62;57.15
64933;BME280;51446;53.850;10.662;2023-07-08T07:07:31;102075.59;;;27.79;56.33
64933;BME280;51446;53.850;10.662;2023-07-08T07:09:56;102067.91;;;27.92;52.70
64933;BME280;51446;53.850;10.662;2023-07-08T07:12:24;102068.22;;;28.09;53.87
64933;BME280;51446;53.850;10.662;2023-07-08T07:14:50;102070.38;;;27.99;52.22
64933;BME280;51446;53.850;10.662;2023-07-08T07:17:18;102072.91;;;27.77;50.39
64933;BME280;51446;53.850;10.662;2023-07-08T07:19:43;102081.31;;;27.95;50.90
64933;BME280;51446;53.850;10.662;2023-07-08T07:22:08;102082.03;;;28.71;48.11
64933;BME280;51446;53.850;10.662;2023-07-08T07:24:34;102076.94;;;28.16;48.74
64933;BME280;51446;53.850;10.662;2023-07-08T07:26:59;102079.94;;;28.32;49.50
64933;BME280;51446;53.850;10.662;2023-07-08T07:29:24;102071.66;;;28.13;50.48
64933;BME280;51446;53.850;10.662;2023-07-08T07:31:50;102072.91;;;28.97;51.65
64933;BME280;51446;53.850;10.662;2023-07-08T07:34:16;102066.81;;;29.36;47.17
64933;BME280;51446;53.850;10.662;2023-07-08T07:36:42;102068.94;;;28.38;49.49
64933;BME280;51446;53.850;10.662;2023-07-08T07:39:07;102063.97;;;28.49;49.62
64933;BME280;51446;53.850;10.662;2023-07-08T07:41:32;102064.34;;;28.16;47.86
64933;BME280;51446;53.850;10.662;2023-07-08T07:43:57;102062.19;;;28.50;46.92
64933;BME280;51446;53.850;10.662;2023-07-08T07:46:23;102061.84;;;28.58;44.72
64933;BME280;51446;53.850;10.662;2023-07-08T07:48:48;102062.28;;;29.78;46.59
64933;BME280;51446;53.850;10.662;2023-07-08T07:51:13;102062.97;;;30.04;45.12
64933;BME280;51446;53.850;10.662;2023-07-08T07:53:39;102064.41;;;28.62;47.62
64933;BME280;51446;53.850;10.662;2023-07-08T07:56:05;102060.19;;;29.64;47.29
64933;BME280;51446;53.850;10.662;2023-07-08T07:58:32;102062.75;;;31.04;43.33
64933;BME280;51446;53.850;10.662;2023-07-08T08:00:57;102062.56;;;30.70;42.62
64933;BME280;51446;53.850;10.662;2023-07-08T08:03:23;102055.50;;;31.04;40.09
64933;BME280;51446;53.850;10.662;2023-07-08T08:05:49;102060.44;;;30.39;41.62
64933;BME280;51446;53.850;10.662;2023-07-08T08:08:14;102052.16;;;30.04;41.96
64933;BME280;51446;53.850;10.662;2023-07-08T08:10:40;102056.25;;;29.92;42.06
64933;BME280;51446;53.850;10.662;2023-07-08T08:13:05;102050.38;;;30.03;41.72
64933;BME280;51446;53.850;10.662;2023-07-08T08:15:30;102051.13;;;31.02;40.33
64933;BME280;51446;53.850;10.662;2023-07-08T08:17:56;102052.22;;;30.40;40.16
64933;BME280;51446;53.850;10.662;2023-07-08T08:20:24;102055.75;;;30.81;42.34
64933;BME280;51446;53.850;10.662;2023-07-08T08:22:50;102060.31;;;31.34;37.98
64933;BME280;51446;53.850;10.662;2023-07-08T08:25:16;102056.09;;;30.92;39.73
64933;BME280;51446;53.850;10.662;2023-07-08T08:27:42;102062.06;;;31.35;36.52
64933;BME280;51446;53.850;10.662;2023-07-08T08:30:07;102060.19;;;31.72;37.45
64933;BME280;51446;53.850;10.662;2023-07-08T08:32:33;102057.13;;;31.78;36.12
64933;BME280;51446;53.850;10.662;2023-07-08T08:34:58;102059.84;;;31.78;37.48
64933;BME280;51446;53.850;10.662;2023-07-08T08:37:23;102062.72;;;32.09;38.55
64933;BME280;51446;53.850;10.662;2023-07-08T08:39:49;102053.06;;;32.21;37.26
64933;BME280;51446;53.850;10.662;2023-07-08T08:42:39;102054.38;;;32.29;39.21
64933;BME280;51446;53.850;10.662;2023-07-08T08:45:07;102050.25;;;32.54;40.52
64933;BME280;51446;53.850;10.662;2023-07-08T08:47:37;102054.00;;;32.20;40.78
64933;BME280;51446;53.850;10.662;2023-07-08T08:52:40;102053.34;;;30.55;44.46
64933;BME280;51446;53.850;10.662;2023-07-08T08:55:13;102048.00;;;31.63;40.81
64933;BME280;51446;53.850;10.662;2023-07-08T09:01:04;102050.66;;;31.81;41.17
64933;BME280;51446;53.850;10.662;2023-07-08T09:03:37;102041.72;;;31.79;42.84
64933;BME280;51446;53.850;10.662;2023-07-08T09:06:19;102051.91;;;31.91;43.86
64933;BME280;51446;53.850;10.662;2023-07-08T09:08:45;102051.47;;;32.16;40.71
64933;BME280;51446;53.850;10.662;2023-07-08T09:11:39;102040.03;;;32.43;41.48
64933;BME280;51446;53.850;10.662;2023-07-08T09:14:22;102041.56;;;31.82;40.27
64933;BME280;51446;53.850;10.662;2023-07-08T09:19:45;102046.22;;;30.34;44.96
64933;BME280;51446;53.850;10.662;2023-07-08T09:22:21;102045.75;;;31.88;41.64
64933;BME280;51446;53.850;10.662;2023-07-08T09:24:58;102042.75;;;31.06;44.08
64933;BME280;51446;53.850;10.662;2023-07-08T09:27:24;102037.06;;;32.80;38.74
64933;BME280;51446;53.850;10.662;2023-07-08T09:29:49;102040.56;;;32.82;40.38
64933;BME280;51446;53.850;10.662;2023-07-08T09:32:20;102043.94;;;31.88;41.27
64933;BME280;51446;53.850;10.662;2023-07-08T09:34:50;102033.28;;;31.33;40.26
64933;BME280;51446;53.850;10.662;2023-07-08T09:39:49;102033.00;;;32.55;42.11
64933;BME280;51446;53.850;10.662;2023-07-08T09:42:15;102036.56;;;31.74;41.56
64933;BME280;51446;53.850;10.662;2023-07-08T09:44:41;102025.44;;;33.08;38.92
64933;BME280;51446;53.850;10.662;2023-07-08T09:47:24;102031.47;;;31.51;40.35
64933;BME280;51446;53.850;10.662;2023-07-08T09:49:51;102025.50;;;32.44;40.70
64933;BME280;51446;53.850;10.662;2023-07-08T09:52:18;102026.47;;;31.94;41.25
64933;BME280;51446;53.850;10.662;2023-07-08T09:54:45;102030.81;;;32.14;41.62
64933;BME280;51446;53.850;10.662;2023-07-08T09:57:47;102027.41;;;32.26;40.87
64933;BME280;51446;53.850;10.662;2023-07-08T10:00:12;102031.13;;;31.74;42.04
64933;BME280;51446;53.850;10.662;2023-07-08T10:02:51;102028.81;;;32.49;41.08
64933;BME280;51446;53.850;10.662;2023-07-08T10:05:24;102035.03;;;32.83;38.04
64933;BME280;51446;53.850;10.662;2023-07-08T10:07:56;102036.50;;;32.41;40.87
64933;BME280;51446;53.850;10.662;2023-07-08T10:10:34;102026.16;;;33.42;37.87
64933;BME280;51446;53.850;10.662;2023-07-08T10:13:06;102036.00;;;32.50;40.67
64933;BME280;51446;53.850;10.662;2023-07-08T10:15:44;102028.38;;;33.35;36.49
64933;BME280;51446;53.850;10.662;2023-07-08T10:18:14;102025.72;;;31.39;40.80
64933;BME280;51446;53.850;10.662;2023-07-08T10:20:59;102028.44;;;32.56;38.85
64933;BME280;51446;53.850;10.662;2023-07-08T10:26:25;102024.19;;;31.51;42.05
64933;BME280;51446;53.850;10.662;2023-07-08T10:36:45;102024.56;;;29.54;47.17
64933;BME280;51446;53.850;10.662;2023-07-08T10:42:21;102023.41;;;29.19;51.58
64933;BME280;51446;53.850;10.662;2023-07-08T10:50:23;102024.91;;;28.60;49.95
64933;BME280;51446;53.850;10.662;2023-07-08T10:55:59;102022.41;;;30.23;47.23
64933;BME280;51446;53.850;10.662;2023-07-08T11:02:13;102019.72;;;29.42;47.18
64933;BME280;51446;53.850;10.662;2023-07-08T11:05:05;102024.00;;;28.37;50.80
64933;BME280;51446;53.850;10.662;2023-07-08T11:07:42;102022.66;;;28.71;49.57
64933;BME280;51446;53.850;10.662;2023-07-08T11:10:30;102018.22;;;29.55;49.73
64933;BME280;51446;53.850;10.662;2023-07-08T11:13:11;102019.38;;;30.29;47.19
64933;BME280;51446;53.850;10.662;2023-07-08T11:15:57;102018.53;;;30.84;45.42
64933;BME280;51446;53.850;10.662;2023-07-08T11:18:51;102019.72;;;30.42;48.27
64933;BME280;51446;53.850;10.662;2023-07-08T11:21:25;102022.16;;;29.89;48.48
64933;BME280;51446;53.850;10.662;2023-07-08T11:24:00;102013.63;;;29.78;46.33
64933;BME280;51446;53.850;10.662;2023-07-08T11:29:03;101997.75;;;29.91;50.02
64933;BME280;51446;53.850;10.662;2023-07-08T11:31:31;101994.97;;;30.86;46.72
64933;BME280;51446;53.850;10.662;2023-07-08T11:33:59;101996.44;;;31.46;44.69
64933;BME280;51446;53.850;10.662;2023-07-08T11:36:25;102004.72;;;29.55;47.60
64933;BME280;51446;53.850;10.662;2023-07-08T11:38:54;101990.00;;;29.42;50.35
64933;BME280;51446;53.850;10.662;2023-07-08T11:41:22;101983.63;;;29.84;50.97
64933;BME280;51446;53.850;10.662;2023-07-08T11:43:55;101992.91;;;30.55;49.85
64933;BME280;51446;53.850;10.662;2023-07-08T11:46:24;101984.66;;;30.75;47.52
64933;BME280;51446;53.850;10.662;2023-07-08T11:48:55;101979.19;;;30.77;46.27
64933;BME280;51446;53.850;10.662;2023-07-08T11:51:33;101985.81;;;30.33;46.99
64933;BME280;51446;53.850;10.662;2023-07-08T11:54:00;101985.09;;;30.10;45.61
64933;BME280;51446;53.850;10.662;2023-07-08T11:56:27;101983.69;;;29.62;49.44
64933;BME280;51446;53.850;10.662;2023-07-08T11:59:12;101975.75;;;29.78;50.20
64933;BME280;51446;53.850;10.662;2023-07-08T12:02:15;101979.19;;;30.02;46.45
64933;BME280;51446;53.850;10.662;2023-07-08T12:05:02;101975.81;;;29.97;46.44
64933;BME280;51446;53.850;10.662;2023-07-08T12:09:58;101976.97;;;29.09;49.57
64933;BME280;51446;53.850;10.662;2023-07-08T12:12:30;101977.78;;;29.73;48.27
64933;BME280;51446;53.850;10.662;2023-07-08T12:15:05;101973.47;;;28.64;49.34
64933;BME280;51446;53.850;10.662;2023-07-08T12:17:35;101977.28;;;29.44;48.89
64933;BME280;51446;53.850;10.662;2023-07-08T12:20:02;101972.66;;;29.87;47.18
64933;BME280;51446;53.850;10.662;2023-07-08T12:22:28;101973.59;;;29.04;48.76
64933;BME280;51446;53.850;10.662;2023-07-08T12:24:54;101973.41;;;28.66;47.84
64933;BME280;51446;53.850;10.662;2023-07-08T12:27:21;101969.38;;;29.19;48.55
64933;BME280;51446;53.850;10.662;2023-07-08T12:29:46;101966.25;;;29.07;48.05
64933;BME280;51446;53.850;10.662;2023-07-08T12:32:12;101969.44;;;29.17;50.81
64933;BME280;51446;53.850;10.662;2023-07-08T12:34:39;101965.13;;;28.91;48.82
64933;BME280;51446;53.850;10.662;2023-07-08T12:37:04;101963.47;;;29.09;48.04
64933;BME280;51446;53.850;10.662;2023-07-08T12:39:34;101953.03;;;29.01;47.38
64933;BME280;51446;53.850;10.662;2023-07-08T12:42:00;101952.47;;;29.14;49.59
64933;BME280;51446;53.850;10.662;2023-07-08T12:44:26;101944.88;;;29.23;47.04
64933;BME280;51446;53.850;10.662;2023-07-08T12:46:53;101960.09;;;29.26;49.34
64933;BME280;51446;53.850;10.662;2023-07-08T12:49:19;101953.66;;;29.29;49.46
64933;BME280;51446;53.850;10.662;2023-07-08T12:51:47;101954.25;;;29.96;50.09
64933;BME280;51446;53.850;10.662;2023-07-08T12:54:13;101955.81;;;29.81;47.12
64933;BME280;51446;53.850;10.662;2023-07-08T12:56:40;101954.47;;;29.31;46.79
64933;BME280;51446;53.850;10.662;2023-07-08T12:59:07;101956.25;;;29.10;47.78
64933;BME280;51446;53.850;10.662;2023-07-08T13:01:35;101950.44;;;29.60;50.39
64933;BME280;51446;53.850;10.662;2023-07-08T13:04:09;101956.75;;;29.61;48.84
64933;BME280;51446;53.850;10.662;2023-07-08T13:06:36;101949.75;;;30.14;47.28
64933;BME280;51446;53.850;10.662;2023-07-08T13:09:15;101953.09;;;29.41;49.11
64933;BME280;51446;53.850;10.662;2023-07-08T13:11:47;101941.13;;;29.05;50.07
64933;BME280;51446;53.850;10.662;2023-07-08T13:14:14;101947.78;;;28.76;50.26
64933;BME280;51446;53.850;10.662;2023-07-08T13:16:40;101942.16;;;29.03;51.32
64933;BME280;51446;53.850;10.662;2023-07-08T13:19:05;101940.94;;;28.67;51.50
64933;BME280;51446;53.850;10.662;2023-07-08T13:21:31;101949.72;;;28.28;52.26
64933;BME280;51446;53.850;10.662;2023-07-08T13:23:58;101943.72;;;28.42;53.88
64933;BME280;51446;53.850;10.662;2023-07-08T13:26:27;101945.34;;;28.70;54.11
64933;BME280;51446;53.850;10.662;2023-07-08T13:29:15;101938.19;;;28.69;51.01